Aviation Digital Data Service (ADDS)

Output produced by METARs form (0224 UTC 16 January 2019)
found at http://www.aviationweather.gov/metar/data/
 
TAF TTPP 152200Z 1600/1624 00000KT 9999 FEW016 
     PROB30 
     TEMPO 1606/1615 7000 SHRA SCT016 BKN038 
     BECMG 1612/1614 10013KT SCT020 SCT038 
     PROB40 
     TEMPO 1615/1620 5000 SHRA BKN018
       
TAF TTCP 152200Z 1600/1624 08005KT 9999 FEW016 
     PROB30 
     TEMPO 1606/1615 7000 SHRA SCT015 BKN038 
     BECMG 1612/1614 10013KT SCT020